sensor_id;sensor_type;location;lat;lon;timestamp;pressure;altitude;pressure_sealevel;temperature;humidity
49645;BME280;36494;50.730;-1.932;2022-07-24T00:01:09;101275.10;;;17.71;100.00
49645;BME280;36494;50.730;-1.932;2022-07-24T00:03:34;101273.71;;;17.68;100.00
49645;BME280;36494;50.730;-1.932;2022-07-24T00:05:59;101273.80;;;17.62;100.00
49645;BME280;36494;50.730;-1.932;2022-07-24T00:08:25;101277.19;;;17.62;100.00
49645;BME280;36494;50.730;-1.932;2022-07-24T00:10:50;101277.25;;;17.62;100.00
49645;BME280;36494;50.730;-1.932;2022-07-24T00:13:16;101274.47;;;17.57;100.00
49645;BME280;36494;50.730;-1.932;2022-07-24T00:15:41;101271.83;;;17.60;100.00
49645;BME280;36494;50.730;-1.932;2022-07-24T00:18:06;101267.00;;;17.64;100.00
49645;BME280;36494;50.730;-1.932;2022-07-24T00:20:32;101262.57;;;17.65;100.00
49645;BME280;36494;50.730;-1.932;2022-07-24T00:22:58;101262.88;;;17.47;100.00
49645;BME280;36494;50.730;-1.932;2022-07-24T00:25:23;101259.68;;;17.43;100.00
49645;BME280;36494;50.730;-1.932;2022-07-24T00:27:49;101256.34;;;17.50;100.00
49645;BME280;36494;50.730;-1.932;2022-07-24T00:30:14;101256.02;;;17.30;100.00
49645;BME280;36494;50.730;-1.932;2022-07-24T00:32:39;101262.60;;;17.45;100.00
49645;BME280;36494;50.730;-1.932;2022-07-24T00:35:05;101255.37;;;17.49;100.00
49645;BME280;36494;50.730;-1.932;2022-07-24T00:37:30;101250.05;;;17.53;100.00
49645;BME280;36494;50.730;-1.932;2022-07-24T00:39:56;101250.71;;;17.53;100.00
49645;BME280;36494;50.730;-1.932;2022-07-24T00:42:22;101247.02;;;17.58;100.00
49645;BME280;36494;50.730;-1.932;2022-07-24T00:44:47;101250.22;;;17.61;100.00
49645;BME280;36494;50.730;-1.932;2022-07-24T00:47:13;101241.24;;;17.58;100.00
49645;BME280;36494;50.730;-1.932;2022-07-24T00:49:38;101240.08;;;17.50;100.00
49645;BME280;36494;50.730;-1.932;2022-07-24T00:52:04;101235.36;;;17.64;100.00
49645;BME280;36494;50.730;-1.932;2022-07-24T00:54:29;101233.16;;;17.37;100.00
49645;BME280;36494;50.730;-1.932;2022-07-24T00:56:54;101230.45;;;17.61;100.00
49645;BME280;36494;50.730;-1.932;2022-07-24T00:59:20;101233.62;;;17.70;100.00
49645;BME280;36494;50.730;-1.932;2022-07-24T01:01:45;101229.28;;;17.77;100.00
49645;BME280;36494;50.730;-1.932;2022-07-24T01:04:10;101224.25;;;17.78;100.00
49645;BME280;36494;50.730;-1.932;2022-07-24T01:06:35;101228.03;;;17.74;100.00
49645;BME280;36494;50.730;-1.932;2022-07-24T01:09:02;101223.14;;;17.66;100.00
49645;BME280;36494;50.730;-1.932;2022-07-24T01:11:26;101221.88;;;17.72;100.00
49645;BME280;36494;50.730;-1.932;2022-07-24T01:13:52;101215.67;;;17.81;100.00
49645;BME280;36494;50.730;-1.932;2022-07-24T01:16:17;101215.32;;;17.65;100.00
49645;BME280;36494;50.730;-1.932;2022-07-24T01:18:43;101213.71;;;17.66;100.00
49645;BME280;36494;50.730;-1.932;2022-07-24T01:21:08;101214.41;;;17.68;100.00
49645;BME280;36494;50.730;-1.932;2022-07-24T01:23:34;101219.52;;;17.73;100.00
49645;BME280;36494;50.730;-1.932;2022-07-24T01:26:00;101221.24;;;17.75;100.00
49645;BME280;36494;50.730;-1.932;2022-07-24T01:28:25;101220.44;;;17.72;100.00
49645;BME280;36494;50.730;-1.932;2022-07-24T01:30:50;101223.09;;;17.77;100.00
49645;BME280;36494;50.730;-1.932;2022-07-24T01:33:16;101218.25;;;17.59;100.00
49645;BME280;36494;50.730;-1.932;2022-07-24T01:35:42;101218.59;;;17.54;100.00
49645;BME280;36494;50.730;-1.932;2022-07-24T01:38:07;101220.06;;;17.50;100.00
49645;BME280;36494;50.730;-1.932;2022-07-24T01:40:33;101227.79;;;17.49;100.00
49645;BME280;36494;50.730;-1.932;2022-07-24T01:42:58;101222.84;;;17.49;100.00
49645;BME280;36494;50.730;-1.932;2022-07-24T01:45:24;101217.89;;;17.53;100.00
49645;BME280;36494;50.730;-1.932;2022-07-24T01:47:49;101220.30;;;17.49;100.00
49645;BME280;36494;50.730;-1.932;2022-07-24T01:50:15;101221.60;;;17.58;100.00
49645;BME280;36494;50.730;-1.932;2022-07-24T01:52:41;101222.64;;;17.65;100.00
49645;BME280;36494;50.730;-1.932;2022-07-24T01:55:06;101224.16;;;17.59;100.00
49645;BME280;36494;50.730;-1.932;2022-07-24T01:57:31;101221.19;;;17.59;100.00
49645;BME280;36494;50.730;-1.932;2022-07-24T01:59:56;101226.36;;;17.67;100.00
49645;BME280;36494;50.730;-1.932;2022-07-24T02:02:21;101221.21;;;17.71;100.00
49645;BME280;36494;50.730;-1.932;2022-07-24T02:04:46;101220.50;;;17.73;100.00
49645;BME280;36494;50.730;-1.932;2022-07-24T02:07:12;101220.93;;;17.74;100.00
49645;BME280;36494;50.730;-1.932;2022-07-24T02:09:37;101213.26;;;17.63;100.00
49645;BME280;36494;50.730;-1.932;2022-07-24T02:12:02;101216.56;;;17.51;100.00
49645;BME280;36494;50.730;-1.932;2022-07-24T02:14:27;101218.30;;;17.60;100.00
49645;BME280;36494;50.730;-1.932;2022-07-24T02:16:53;101218.13;;;17.52;100.00
49645;BME280;36494;50.730;-1.932;2022-07-24T02:19:18;101220.94;;;17.61;100.00
49645;BME280;36494;50.730;-1.932;2022-07-24T02:21:44;101215.83;;;17.47;100.00
49645;BME280;36494;50.730;-1.932;2022-07-24T02:24:09;101211.05;;;17.49;100.00
49645;BME280;36494;50.730;-1.932;2022-07-24T02:26:35;101216.74;;;17.36;100.00
49645;BME280;36494;50.730;-1.932;2022-07-24T02:29:00;101211.65;;;17.51;100.00
49645;BME280;36494;50.730;-1.932;2022-07-24T02:31:25;101211.73;;;17.46;100.00
49645;BME280;36494;50.730;-1.932;2022-07-24T02:33:50;101211.98;;;17.38;100.00
49645;BME280;36494;50.730;-1.932;2022-07-24T02:36:16;101213.19;;;17.48;100.00
49645;BME280;36494;50.730;-1.932;2022-07-24T02:38:41;101212.02;;;17.38;100.00
49645;BME280;36494;50.730;-1.932;2022-07-24T02:41:07;101209.77;;;17.29;100.00
49645;BME280;36494;50.730;-1.932;2022-07-24T02:43:32;101207.99;;;17.35;100.00
49645;BME280;36494;50.730;-1.932;2022-07-24T02:45:57;101205.26;;;17.33;100.00
49645;BME280;36494;50.730;-1.932;2022-07-24T02:48:22;101199.17;;;17.30;100.00
49645;BME280;36494;50.730;-1.932;2022-07-24T02:50:48;101200.91;;;17.18;100.00
49645;BME280;36494;50.730;-1.932;2022-07-24T02:53:13;101206.17;;;17.23;100.00
49645;BME280;36494;50.730;-1.932;2022-07-24T02:55:38;101199.12;;;17.38;100.00
49645;BME280;36494;50.730;-1.932;2022-07-24T02:58:03;101201.09;;;17.29;100.00
49645;BME280;36494;50.730;-1.932;2022-07-24T03:00:29;101201.11;;;17.30;100.00
49645;BME280;36494;50.730;-1.932;2022-07-24T03:02:54;101200.52;;;17.37;100.00
49645;BME280;36494;50.730;-1.932;2022-07-24T03:05:19;101196.69;;;17.45;100.00
49645;BME280;36494;50.730;-1.932;2022-07-24T03:07:45;101201.63;;;17.45;100.00
49645;BME280;36494;50.730;-1.932;2022-07-24T03:10:11;101198.86;;;17.50;100.00
49645;BME280;36494;50.730;-1.932;2022-07-24T03:12:36;101202.15;;;17.44;100.00
49645;BME280;36494;50.730;-1.932;2022-07-24T03:15:01;101194.97;;;17.32;100.00
49645;BME280;36494;50.730;-1.932;2022-07-24T03:17:27;101198.25;;;17.34;100.00
49645;BME280;36494;50.730;-1.932;2022-07-24T03:19:52;101199.39;;;17.28;100.00
49645;BME280;36494;50.730;-1.932;2022-07-24T03:22:17;101201.30;;;17.44;100.00
49645;BME280;36494;50.730;-1.932;2022-07-24T03:24:43;101199.18;;;17.38;100.00
49645;BME280;36494;50.730;-1.932;2022-07-24T03:27:08;101200.72;;;17.38;100.00
49645;BME280;36494;50.730;-1.932;2022-07-24T03:29:33;101195.95;;;17.33;100.00
49645;BME280;36494;50.730;-1.932;2022-07-24T03:31:58;101191.85;;;17.33;100.00
49645;BME280;36494;50.730;-1.932;2022-07-24T03:34:24;101192.63;;;17.39;100.00
49645;BME280;36494;50.730;-1.932;2022-07-24T03:36:49;101193.33;;;17.38;100.00
49645;BME280;36494;50.730;-1.932;2022-07-24T03:39:14;101200.57;;;17.43;100.00
49645;BME280;36494;50.730;-1.932;2022-07-24T03:41:39;101199.61;;;17.50;100.00
49645;BME280;36494;50.730;-1.932;2022-07-24T03:44:05;101195.10;;;17.37;100.00
49645;BME280;36494;50.730;-1.932;2022-07-24T03:46:30;101193.45;;;17.36;100.00
49645;BME280;36494;50.730;-1.932;2022-07-24T03:48:56;101185.19;;;17.29;100.00
49645;BME280;36494;50.730;-1.932;2022-07-24T03:51:21;101180.52;;;17.29;100.00
49645;BME280;36494;50.730;-1.932;2022-07-24T03:53:46;101177.59;;;17.40;100.00
49645;BME280;36494;50.730;-1.932;2022-07-24T03:56:11;101176.71;;;17.34;100.00
49645;BME280;36494;50.730;-1.932;2022-07-24T03:58:37;101179.71;;;17.49;100.00
49645;BME280;36494;50.730;-1.932;2022-07-24T04:01:02;101176.29;;;17.54;100.00
49645;BME280;36494;50.730;-1.932;2022-07-24T04:03:28;101176.14;;;17.50;100.00
49645;BME280;36494;50.730;-1.932;2022-07-24T04:05:53;101173.38;;;17.34;100.00
49645;BME280;36494;50.730;-1.932;2022-07-24T04:08:18;101168.00;;;17.40;100.00
49645;BME280;36494;50.730;-1.932;2022-07-24T04:10:44;101162.23;;;17.32;100.00
49645;BME280;36494;50.730;-1.932;2022-07-24T04:13:09;101160.16;;;17.28;100.00
49645;BME280;36494;50.730;-1.932;2022-07-24T04:15:35;101159.22;;;17.20;100.00
49645;BME280;36494;50.730;-1.932;2022-07-24T04:18:01;101156.51;;;17.28;100.00
49645;BME280;36494;50.730;-1.932;2022-07-24T04:20:26;101155.50;;;17.29;100.00
49645;BME280;36494;50.730;-1.932;2022-07-24T04:22:51;101156.37;;;17.32;100.00
49645;BME280;36494;50.730;-1.932;2022-07-24T04:25:16;101156.74;;;17.32;100.00
49645;BME280;36494;50.730;-1.932;2022-07-24T04:27:42;101156.81;;;17.37;100.00
49645;BME280;36494;50.730;-1.932;2022-07-24T04:30:09;101158.64;;;17.36;100.00
49645;BME280;36494;50.730;-1.932;2022-07-24T04:32:33;101148.45;;;17.40;100.00
49645;BME280;36494;50.730;-1.932;2022-07-24T04:34:59;101148.79;;;17.46;100.00
49645;BME280;36494;50.730;-1.932;2022-07-24T04:37:24;101143.73;;;17.31;100.00
49645;BME280;36494;50.730;-1.932;2022-07-24T04:39:50;101144.86;;;17.43;100.00
49645;BME280;36494;50.730;-1.932;2022-07-24T04:42:16;101141.93;;;17.44;100.00
49645;BME280;36494;50.730;-1.932;2022-07-24T04:44:41;101139.64;;;17.30;100.00
49645;BME280;36494;50.730;-1.932;2022-07-24T04:47:07;101137.60;;;17.23;100.00
49645;BME280;36494;50.730;-1.932;2022-07-24T04:49:32;101139.82;;;17.35;100.00
49645;BME280;36494;50.730;-1.932;2022-07-24T04:51:58;101136.58;;;17.28;100.00
49645;BME280;36494;50.730;-1.932;2022-07-24T04:54:24;101134.13;;;17.32;100.00
49645;BME280;36494;50.730;-1.932;2022-07-24T04:56:50;101134.77;;;17.38;100.00
49645;BME280;36494;50.730;-1.932;2022-07-24T04:59:15;101136.77;;;17.14;100.00
49645;BME280;36494;50.730;-1.932;2022-07-24T05:01:41;101141.69;;;17.36;100.00
49645;BME280;36494;50.730;-1.932;2022-07-24T05:04:06;101139.98;;;17.44;100.00
49645;BME280;36494;50.730;-1.932;2022-07-24T05:06:31;101136.44;;;17.45;100.00
49645;BME280;36494;50.730;-1.932;2022-07-24T05:08:56;101134.51;;;17.49;100.00
49645;BME280;36494;50.730;-1.932;2022-07-24T05:11:22;101135.76;;;17.43;100.00
49645;BME280;36494;50.730;-1.932;2022-07-24T05:13:47;101139.62;;;17.41;100.00
49645;BME280;36494;50.730;-1.932;2022-07-24T05:16:13;101135.75;;;17.42;100.00
49645;BME280;36494;50.730;-1.932;2022-07-24T05:18:39;101135.68;;;17.46;100.00
49645;BME280;36494;50.730;-1.932;2022-07-24T05:21:04;101139.80;;;17.55;100.00
49645;BME280;36494;50.730;-1.932;2022-07-24T05:23:29;101137.70;;;17.53;100.00
49645;BME280;36494;50.730;-1.932;2022-07-24T05:25:55;101140.49;;;17.48;100.00
49645;BME280;36494;50.730;-1.932;2022-07-24T05:28:21;101133.10;;;17.53;100.00
49645;BME280;36494;50.730;-1.932;2022-07-24T05:30:46;101133.58;;;17.64;100.00
49645;BME280;36494;50.730;-1.932;2022-07-24T05:33:11;101134.64;;;17.68;100.00
49645;BME280;36494;50.730;-1.932;2022-07-24T05:35:37;101135.36;;;17.54;100.00
49645;BME280;36494;50.730;-1.932;2022-07-24T05:38:02;101134.27;;;17.54;100.00
49645;BME280;36494;50.730;-1.932;2022-07-24T05:40:27;101133.31;;;17.52;100.00
49645;BME280;36494;50.730;-1.932;2022-07-24T05:42:53;101130.83;;;17.59;100.00
49645;BME280;36494;50.730;-1.932;2022-07-24T05:45:18;101130.72;;;17.58;100.00
49645;BME280;36494;50.730;-1.932;2022-07-24T05:47:43;101136.67;;;17.58;100.00
49645;BME280;36494;50.730;-1.932;2022-07-24T05:50:10;101134.40;;;17.53;100.00
49645;BME280;36494;50.730;-1.932;2022-07-24T05:52:34;101135.47;;;17.65;100.00
49645;BME280;36494;50.730;-1.932;2022-07-24T05:54:59;101129.95;;;17.70;100.00
49645;BME280;36494;50.730;-1.932;2022-07-24T05:57:24;101131.28;;;17.60;100.00
49645;BME280;36494;50.730;-1.932;2022-07-24T05:59:50;101130.85;;;17.61;100.00
49645;BME280;36494;50.730;-1.932;2022-07-24T06:02:15;101127.16;;;17.64;100.00
49645;BME280;36494;50.730;-1.932;2022-07-24T06:04:40;101125.47;;;17.76;100.00
49645;BME280;36494;50.730;-1.932;2022-07-24T06:07:05;101120.76;;;17.75;100.00
49645;BME280;36494;50.730;-1.932;2022-07-24T06:09:31;101120.19;;;17.48;100.00
49645;BME280;36494;50.730;-1.932;2022-07-24T06:11:56;101119.76;;;17.69;100.00
49645;BME280;36494;50.730;-1.932;2022-07-24T06:14:21;101125.14;;;17.66;100.00
49645;BME280;36494;50.730;-1.932;2022-07-24T06:16:46;101126.73;;;17.43;100.00
49645;BME280;36494;50.730;-1.932;2022-07-24T06:19:11;101123.35;;;17.64;100.00
49645;BME280;36494;50.730;-1.932;2022-07-24T06:21:37;101125.75;;;17.63;100.00
49645;BME280;36494;50.730;-1.932;2022-07-24T06:24:02;101121.36;;;17.62;100.00
49645;BME280;36494;50.730;-1.932;2022-07-24T06:26:27;101120.68;;;17.46;100.00
49645;BME280;36494;50.730;-1.932;2022-07-24T06:28:53;101120.29;;;17.56;100.00
49645;BME280;36494;50.730;-1.932;2022-07-24T06:31:19;101119.19;;;17.53;100.00
49645;BME280;36494;50.730;-1.932;2022-07-24T06:33:44;101120.79;;;17.63;100.00
49645;BME280;36494;50.730;-1.932;2022-07-24T06:36:09;101116.69;;;17.71;100.00
49645;BME280;36494;50.730;-1.932;2022-07-24T06:38:36;101118.49;;;17.70;100.00
49645;BME280;36494;50.730;-1.932;2022-07-24T06:41:00;101115.77;;;17.72;100.00
49645;BME280;36494;50.730;-1.932;2022-07-24T06:43:26;101113.44;;;17.80;100.00
49645;BME280;36494;50.730;-1.932;2022-07-24T06:45:51;101118.10;;;17.74;100.00
49645;BME280;36494;50.730;-1.932;2022-07-24T06:48:17;101116.97;;;17.78;100.00
49645;BME280;36494;50.730;-1.932;2022-07-24T06:50:42;101120.34;;;17.78;100.00
49645;BME280;36494;50.730;-1.932;2022-07-24T06:53:07;101120.06;;;17.72;100.00
49645;BME280;36494;50.730;-1.932;2022-07-24T06:55:33;101120.31;;;17.60;100.00
49645;BME280;36494;50.730;-1.932;2022-07-24T06:57:58;101121.88;;;17.55;100.00
49645;BME280;36494;50.730;-1.932;2022-07-24T07:00:23;101118.03;;;17.45;100.00
49645;BME280;36494;50.730;-1.932;2022-07-24T07:02:48;101124.73;;;17.35;100.00
49645;BME280;36494;50.730;-1.932;2022-07-24T07:05:13;101116.65;;;17.45;100.00
49645;BME280;36494;50.730;-1.932;2022-07-24T07:07:39;101111.30;;;17.52;100.00
49645;BME280;36494;50.730;-1.932;2022-07-24T07:10:05;101109.56;;;17.62;100.00
49645;BME280;36494;50.730;-1.932;2022-07-24T07:12:30;101107.58;;;17.58;100.00
49645;BME280;36494;50.730;-1.932;2022-07-24T07:14:55;101113.26;;;17.66;100.00
49645;BME280;36494;50.730;-1.932;2022-07-24T07:17:20;101111.68;;;17.60;100.00
49645;BME280;36494;50.730;-1.932;2022-07-24T07:19:46;101109.01;;;17.71;100.00
49645;BME280;36494;50.730;-1.932;2022-07-24T07:22:11;101110.58;;;17.64;100.00
49645;BME280;36494;50.730;-1.932;2022-07-24T07:24:37;101108.96;;;17.60;100.00
49645;BME280;36494;50.730;-1.932;2022-07-24T07:27:02;101109.74;;;17.58;100.00
49645;BME280;36494;50.730;-1.932;2022-07-24T07:29:27;101109.66;;;17.62;100.00
49645;BME280;36494;50.730;-1.932;2022-07-24T07:31:53;101112.49;;;17.73;100.00
49645;BME280;36494;50.730;-1.932;2022-07-24T07:34:18;101110.68;;;17.75;100.00
49645;BME280;36494;50.730;-1.932;2022-07-24T07:36:43;101108.39;;;17.82;100.00
49645;BME280;36494;50.730;-1.932;2022-07-24T07:39:08;101107.64;;;17.85;100.00
49645;BME280;36494;50.730;-1.932;2022-07-24T07:41:35;101105.78;;;17.82;100.00
49645;BME280;36494;50.730;-1.932;2022-07-24T07:44:00;101103.87;;;17.49;100.00
49645;BME280;36494;50.730;-1.932;2022-07-24T07:46:26;101100.46;;;17.60;100.00
49645;BME280;36494;50.730;-1.932;2022-07-24T07:48:51;101100.18;;;17.67;100.00
49645;BME280;36494;50.730;-1.932;2022-07-24T07:51:16;101095.42;;;17.76;100.00
49645;BME280;36494;50.730;-1.932;2022-07-24T07:53:42;101095.63;;;17.49;100.00
49645;BME280;36494;50.730;-1.932;2022-07-24T07:56:07;101097.47;;;17.69;100.00
49645;BME280;36494;50.730;-1.932;2022-07-24T07:58:33;101093.07;;;17.68;100.00
49645;BME280;36494;50.730;-1.932;2022-07-24T08:00:58;101088.40;;;17.79;100.00
49645;BME280;36494;50.730;-1.932;2022-07-24T08:03:23;101086.30;;;17.85;100.00
49645;BME280;36494;50.730;-1.932;2022-07-24T08:05:48;101084.34;;;17.88;100.00
49645;BME280;36494;50.730;-1.932;2022-07-24T08:08:13;101083.01;;;17.73;100.00
49645;BME280;36494;50.730;-1.932;2022-07-24T08:10:39;101082.28;;;17.89;100.00
49645;BME280;36494;50.730;-1.932;2022-07-24T08:13:04;101081.99;;;17.92;100.00
49645;BME280;36494;50.730;-1.932;2022-07-24T08:15:30;101082.78;;;18.10;100.00
49645;BME280;36494;50.730;-1.932;2022-07-24T08:17:56;101083.54;;;18.02;100.00
49645;BME280;36494;50.730;-1.932;2022-07-24T08:20:21;101078.63;;;18.09;100.00
49645;BME280;36494;50.730;-1.932;2022-07-24T08:22:46;101075.18;;;18.14;100.00
49645;BME280;36494;50.730;-1.932;2022-07-24T08:25:11;101074.13;;;17.93;100.00
49645;BME280;36494;50.730;-1.932;2022-07-24T08:27:37;101079.64;;;17.86;100.00
49645;BME280;36494;50.730;-1.932;2022-07-24T08:30:03;101083.61;;;18.10;100.00
49645;BME280;36494;50.730;-1.932;2022-07-24T08:32:27;101074.55;;;18.12;100.00
49645;BME280;36494;50.730;-1.932;2022-07-24T08:34:52;101070.84;;;17.97;100.00
49645;BME280;36494;50.730;-1.932;2022-07-24T08:37:19;101076.72;;;17.86;100.00
49645;BME280;36494;50.730;-1.932;2022-07-24T08:39:43;101079.38;;;17.93;100.00
49645;BME280;36494;50.730;-1.932;2022-07-24T08:42:09;101074.84;;;18.13;100.00
49645;BME280;36494;50.730;-1.932;2022-07-24T08:44:34;101072.60;;;18.23;100.00
49645;BME280;36494;50.730;-1.932;2022-07-24T08:47:00;101074.80;;;18.21;100.00
49645;BME280;36494;50.730;-1.932;2022-07-24T08:49:26;101076.32;;;18.31;100.00
49645;BME280;36494;50.730;-1.932;2022-07-24T08:51:50;101077.74;;;18.16;100.00
49645;BME280;36494;50.730;-1.932;2022-07-24T08:54:16;101078.80;;;18.23;100.00
49645;BME280;36494;50.730;-1.932;2022-07-24T08:56:42;101077.36;;;18.14;100.00
49645;BME280;36494;50.730;-1.932;2022-07-24T08:59:15;101077.91;;;18.06;100.00
49645;BME280;36494;50.730;-1.932;2022-07-24T09:01:32;101078.82;;;18.05;100.00
49645;BME280;36494;50.730;-1.932;2022-07-24T09:03:57;101069.58;;;18.12;100.00
49645;BME280;36494;50.730;-1.932;2022-07-24T09:06:22;101070.77;;;18.15;100.00
49645;BME280;36494;50.730;-1.932;2022-07-24T09:08:57;101069.06;;;18.31;100.00
49645;BME280;36494;50.730;-1.932;2022-07-24T09:11:20;101072.57;;;17.93;100.00
49645;BME280;36494;50.730;-1.932;2022-07-24T09:13:38;101073.51;;;17.78;100.00
49645;BME280;36494;50.730;-1.932;2022-07-24T09:16:04;101077.17;;;17.88;100.00
49645;BME280;36494;50.730;-1.932;2022-07-24T09:18:31;101070.61;;;17.81;100.00
49645;BME280;36494;50.730;-1.932;2022-07-24T09:20:55;101067.46;;;18.05;100.00
49645;BME280;36494;50.730;-1.932;2022-07-24T09:23:20;101064.39;;;18.01;100.00
49645;BME280;36494;50.730;-1.932;2022-07-24T09:25:50;101068.76;;;17.81;100.00
49645;BME280;36494;50.730;-1.932;2022-07-24T09:28:10;101063.78;;;17.97;100.00
49645;BME280;36494;50.730;-1.932;2022-07-24T09:30:41;101065.83;;;18.06;100.00
49645;BME280;36494;50.730;-1.932;2022-07-24T09:33:03;101069.53;;;18.07;100.00
49645;BME280;36494;50.730;-1.932;2022-07-24T09:35:31;101064.69;;;18.10;100.00
49645;BME280;36494;50.730;-1.932;2022-07-24T09:37:55;101064.97;;;18.23;100.00
49645;BME280;36494;50.730;-1.932;2022-07-24T09:40:17;101066.69;;;18.26;100.00
49645;BME280;36494;50.730;-1.932;2022-07-24T09:42:42;101064.98;;;18.26;100.00
49645;BME280;36494;50.730;-1.932;2022-07-24T09:45:08;101062.43;;;18.07;100.00
49645;BME280;36494;50.730;-1.932;2022-07-24T09:47:34;101065.14;;;17.96;100.00
49645;BME280;36494;50.730;-1.932;2022-07-24T09:50:12;101069.64;;;17.86;100.00
49645;BME280;36494;50.730;-1.932;2022-07-24T09:52:32;101063.95;;;17.99;100.00
49645;BME280;36494;50.730;-1.932;2022-07-24T09:54:50;101064.57;;;17.99;100.00
49645;BME280;36494;50.730;-1.932;2022-07-24T09:57:17;101065.71;;;17.83;100.00
49645;BME280;36494;50.730;-1.932;2022-07-24T09:59:40;101063.09;;;18.00;100.00
49645;BME280;36494;50.730;-1.932;2022-07-24T10:02:06;101060.05;;;17.98;100.00
49645;BME280;36494;50.730;-1.932;2022-07-24T10:04:34;101057.19;;;17.95;100.00
49645;BME280;36494;50.730;-1.932;2022-07-24T10:06:56;101060.67;;;17.87;100.00
49645;BME280;36494;50.730;-1.932;2022-07-24T10:09:23;101056.64;;;17.91;100.00
49645;BME280;36494;50.730;-1.932;2022-07-24T10:11:48;101059.97;;;17.74;100.00
49645;BME280;36494;50.730;-1.932;2022-07-24T10:14:12;101061.02;;;17.74;100.00
49645;BME280;36494;50.730;-1.932;2022-07-24T10:16:39;101058.82;;;17.82;100.00
49645;BME280;36494;50.730;-1.932;2022-07-24T10:19:03;101056.74;;;18.04;100.00
49645;BME280;36494;50.730;-1.932;2022-07-24T10:21:30;101059.02;;;18.08;100.00
49645;BME280;36494;50.730;-1.932;2022-07-24T10:24:17;101056.03;;;18.06;100.00
49645;BME280;36494;50.730;-1.932;2022-07-24T10:26:26;101056.97;;;18.13;100.00
49645;BME280;36494;50.730;-1.932;2022-07-24T10:28:44;101055.91;;;18.22;100.00
49645;BME280;36494;50.730;-1.932;2022-07-24T10:31:10;101046.97;;;18.38;100.00
49645;BME280;36494;50.730;-1.932;2022-07-24T10:33:37;101052.08;;;18.27;100.00
49645;BME280;36494;50.730;-1.932;2022-07-24T10:36:02;101046.45;;;18.44;100.00
49645;BME280;36494;50.730;-1.932;2022-07-24T10:38:30;101045.43;;;18.49;100.00
49645;BME280;36494;50.730;-1.932;2022-07-24T10:40:52;101042.46;;;18.61;100.00
49645;BME280;36494;50.730;-1.932;2022-07-24T10:43:17;101040.70;;;18.76;100.00
49645;BME280;36494;50.730;-1.932;2022-07-24T10:45:43;101039.73;;;18.89;100.00
49645;BME280;36494;50.730;-1.932;2022-07-24T10:48:24;101037.73;;;18.83;100.00
49645;BME280;36494;50.730;-1.932;2022-07-24T10:52:56;101037.02;;;19.20;100.00
49645;BME280;36494;50.730;-1.932;2022-07-24T10:55:23;101034.73;;;19.26;100.00
49645;BME280;36494;50.730;-1.932;2022-07-24T10:57:50;101030.58;;;19.15;100.00
49645;BME280;36494;50.730;-1.932;2022-07-24T11:00:22;101031.33;;;19.39;100.00
49645;BME280;36494;50.730;-1.932;2022-07-24T11:02:47;101027.69;;;19.32;100.00
49645;BME280;36494;50.730;-1.932;2022-07-24T11:07:28;101032.38;;;19.50;100.00
49645;BME280;36494;50.730;-1.932;2022-07-24T11:09:58;101034.83;;;19.12;100.00
49645;BME280;36494;50.730;-1.932;2022-07-24T11:12:26;101030.74;;;19.38;100.00
49645;BME280;36494;50.730;-1.932;2022-07-24T11:14:50;101031.73;;;19.49;100.00
49645;BME280;36494;50.730;-1.932;2022-07-24T11:19:37;101028.86;;;19.64;100.00
49645;BME280;36494;50.730;-1.932;2022-07-24T11:22:08;101024.21;;;19.76;100.00
49645;BME280;36494;50.730;-1.932;2022-07-24T11:24:27;101030.22;;;19.53;100.00
49645;BME280;36494;50.730;-1.932;2022-07-24T11:26:54;101023.05;;;19.68;100.00
49645;BME280;36494;50.730;-1.932;2022-07-24T11:29:19;101022.84;;;19.84;100.00
49645;BME280;36494;50.730;-1.932;2022-07-24T11:31:44;101026.01;;;19.92;100.00
49645;BME280;36494;50.730;-1.932;2022-07-24T11:34:09;101026.65;;;19.64;100.00
49645;BME280;36494;50.730;-1.932;2022-07-24T11:36:34;101023.75;;;19.77;100.00
49645;BME280;36494;50.730;-1.932;2022-07-24T11:38:59;101022.24;;;19.87;100.00
49645;BME280;36494;50.730;-1.932;2022-07-24T11:41:24;101026.37;;;20.01;100.00
49645;BME280;36494;50.730;-1.932;2022-07-24T11:43:50;101019.24;;;19.79;100.00
49645;BME280;36494;50.730;-1.932;2022-07-24T11:46:14;101015.62;;;19.63;100.00
49645;BME280;36494;50.730;-1.932;2022-07-24T11:48:40;101013.73;;;19.75;100.00
49645;BME280;36494;50.730;-1.932;2022-07-24T11:51:05;101014.30;;;19.77;100.00
49645;BME280;36494;50.730;-1.932;2022-07-24T11:53:30;101009.36;;;19.51;100.00
49645;BME280;36494;50.730;-1.932;2022-07-24T11:56:02;101008.48;;;19.52;100.00
49645;BME280;36494;50.730;-1.932;2022-07-24T11:58:21;101008.36;;;19.45;100.00
49645;BME280;36494;50.730;-1.932;2022-07-24T12:00:46;101008.01;;;19.04;100.00
49645;BME280;36494;50.730;-1.932;2022-07-24T12:03:12;101003.72;;;19.28;100.00
49645;BME280;36494;50.730;-1.932;2022-07-24T12:05:38;101001.50;;;19.32;100.00
49645;BME280;36494;50.730;-1.932;2022-07-24T12:08:04;100993.07;;;19.28;100.00
49645;BME280;36494;50.730;-1.932;2022-07-24T12:10:29;100995.43;;;19.43;100.00
49645;BME280;36494;50.730;-1.932;2022-07-24T12:12:54;101000.12;;;19.36;100.00
49645;BME280;36494;50.730;-1.932;2022-07-24T12:15:18;100989.52;;;19.41;100.00
49645;BME280;36494;50.730;-1.932;2022-07-24T12:17:55;100994.19;;;19.60;100.00
49645;BME280;36494;50.730;-1.932;2022-07-24T12:20:09;100988.53;;;19.76;100.00
49645;BME280;36494;50.730;-1.932;2022-07-24T12:22:35;100984.03;;;19.79;100.00
49645;BME280;36494;50.730;-1.932;2022-07-24T12:25:01;100973.86;;;19.95;100.00
49645;BME280;36494;50.730;-1.932;2022-07-24T12:27:35;100970.99;;;19.90;100.00